createdAt,value
2018-03-26T00:00:01.692Z,22.07
2018-03-26T00:02:30.420Z,25.00
2018-03-26T00:05:00.456Z,20.97
2018-03-26T00:07:29.274Z,23.47
2018-03-26T00:09:57.584Z,24.00
2018-03-26T00:12:26.879Z,25.73
2018-03-26T00:14:55.214Z,24.40
2018-03-26T00:17:23.692Z,23.27
2018-03-26T00:19:52.419Z,23.37
2018-03-26T00:22:20.729Z,23.80
2018-03-26T00:24:49.080Z,26.13
2018-03-26T00:27:18.071Z,25.63
2018-03-26T00:29:46.387Z,24.83
2018-03-26T00:32:14.834Z,26.17
2018-03-26T00:34:43.626Z,25.00
2018-03-26T00:37:12.319Z,27.30
2018-03-26T00:39:40.927Z,28.37
2018-03-26T00:42:09.746Z,22.20
2018-03-26T00:44:38.703Z,24.50
2018-03-26T00:47:07.220Z,23.97
2018-03-26T00:49:35.880Z,25.10
2018-03-26T00:52:04.199Z,23.83
2018-03-26T00:54:32.532Z,24.20
2018-03-26T00:57:02.432Z,24.53
2018-03-26T00:59:30.891Z,23.10
2018-03-26T01:01:59.204Z,22.60
2018-03-26T01:04:27.560Z,22.10
2018-03-26T01:06:55.876Z,23.57
2018-03-26T01:09:24.244Z,25.40
2018-03-26T01:11:52.594Z,28.10
2018-03-26T01:14:21.664Z,24.40
2018-03-26T01:16:50.040Z,24.77
2018-03-26T01:19:18.944Z,24.37
2018-03-26T01:21:48.759Z,25.10
2018-03-26T01:24:17.112Z,24.77
2018-03-26T01:26:45.434Z,29.70
2018-03-26T01:29:14.338Z,27.63
2018-03-26T01:31:43.580Z,31.20
2018-03-26T01:34:12.712Z,28.93
2018-03-26T01:36:41.628Z,34.37
2018-03-26T01:39:10.036Z,29.83
2018-03-26T01:41:39.762Z,31.10
2018-03-26T01:44:08.172Z,32.93
2018-03-26T01:46:37.259Z,29.93
2018-03-26T01:49:05.572Z,26.50
2018-03-26T01:51:34.571Z,27.40
2018-03-26T01:54:02.943Z,26.30
2018-03-26T01:56:31.595Z,26.67
2018-03-26T01:58:59.956Z,25.33
2018-03-26T02:01:30.151Z,26.63
2018-03-26T02:03:58.692Z,26.70
2018-03-26T02:06:28.488Z,31.40
2018-03-26T02:08:56.876Z,28.10
2018-03-26T02:11:25.209Z,29.87
2018-03-26T02:13:54.065Z,25.73
2018-03-26T02:16:23.125Z,27.67
2018-03-26T02:18:51.993Z,27.07
2018-03-26T02:21:20.321Z,27.50
2018-03-26T02:23:48.755Z,28.87
2018-03-26T02:26:17.862Z,28.00
2018-03-26T02:28:47.096Z,27.43
2018-03-26T02:31:15.475Z,29.30
2018-03-26T02:33:44.397Z,31.03
2018-03-26T02:36:12.805Z,30.07
2018-03-26T02:38:41.337Z,35.17
2018-03-26T02:41:10.320Z,33.80
2018-03-26T02:43:39.468Z,34.97
2018-03-26T02:46:07.821Z,31.70
2018-03-26T02:48:38.255Z,36.17
2018-03-26T02:51:06.680Z,34.90
2018-03-26T02:53:35.025Z,29.70
2018-03-26T02:56:03.985Z,31.77
2018-03-26T02:58:33.032Z,27.50
2018-03-26T03:01:01.356Z,29.20
2018-03-26T03:03:29.683Z,35.00
2018-03-26T03:05:57.861Z,32.60
2018-03-26T03:08:26.540Z,34.50
2018-03-26T03:10:54.852Z,32.20
2018-03-26T03:13:23.195Z,29.67
2018-03-26T03:15:51.945Z,30.20
2018-03-26T03:18:20.507Z,37.60
2018-03-26T03:20:48.815Z,33.57
2018-03-26T03:23:17.673Z,33.97
2018-03-26T03:25:46.028Z,32.87
2018-03-26T03:28:14.346Z,33.87
2018-03-26T03:30:42.701Z,31.23
2018-03-26T03:33:12.370Z,30.87
2018-03-26T03:35:40.687Z,30.73
2018-03-26T03:38:09.657Z,37.45
2018-03-26T03:40:37.990Z,32.10
2018-03-26T03:43:06.296Z,31.80
2018-03-26T03:45:34.648Z,29.30
2018-03-26T03:48:02.960Z,32.83
2018-03-26T03:50:31.312Z,32.40
2018-03-26T03:53:00.218Z,30.98
2018-03-26T03:55:28.556Z,29.50
2018-03-26T03:57:56.895Z,31.93
2018-03-26T04:00:25.707Z,29.57
2018-03-26T04:02:54.136Z,31.58
2018-03-26T04:05:22.452Z,32.70
2018-03-26T04:07:50.824Z,34.10
2018-03-26T04:10:19.160Z,28.50
2018-03-26T04:12:47.463Z,30.53
2018-03-26T04:15:15.804Z,26.27
2018-03-26T04:17:44.111Z,29.13
2018-03-26T04:20:12.942Z,29.57
2018-03-26T04:22:41.229Z,25.33
2018-03-26T04:25:10.900Z,26.30
2018-03-26T04:27:40.327Z,24.13
2018-03-26T04:30:08.932Z,29.87
2018-03-26T04:32:37.244Z,28.70
2018-03-26T04:35:06.072Z,26.80
2018-03-26T04:37:34.504Z,26.07
2018-03-26T04:40:02.825Z,26.53
2018-03-26T04:42:31.420Z,28.40
2018-03-26T04:44:59.736Z,25.73
2018-03-26T04:47:28.048Z,26.63
2018-03-26T04:49:57.079Z,24.20
2018-03-26T04:52:25.380Z,25.57
2018-03-26T04:54:55.256Z,27.47
2018-03-26T04:57:24.337Z,27.03
2018-03-26T04:59:53.435Z,25.80
2018-03-26T05:02:22.391Z,28.07
2018-03-26T05:04:50.825Z,28.60
2018-03-26T05:07:19.134Z,24.47
2018-03-26T05:09:47.447Z,26.57
2018-03-26T05:12:16.520Z,25.80
2018-03-26T05:14:46.069Z,24.90
2018-03-26T05:17:14.679Z,22.77
2018-03-26T05:19:43.945Z,24.43
2018-03-26T05:22:12.696Z,25.27
2018-03-26T05:24:41.095Z,24.90
2018-03-26T05:27:09.287Z,22.30
2018-03-26T05:29:37.648Z,24.20
2018-03-26T05:32:07.617Z,22.97
2018-03-26T05:34:35.957Z,25.10
2018-03-26T05:37:04.814Z,24.10
2018-03-26T05:39:33.184Z,24.53
2018-03-26T05:42:02.344Z,24.57
2018-03-26T05:44:30.661Z,23.23
2018-03-26T05:46:59.524Z,25.80
2018-03-26T05:49:27.828Z,23.40
2018-03-26T05:51:56.134Z,23.43
2018-03-26T05:54:25.175Z,23.60
2018-03-26T05:56:53.628Z,22.47
2018-03-26T05:59:22.566Z,24.07
2018-03-26T06:01:50.963Z,22.90
2018-03-26T06:04:19.992Z,24.63
2018-03-26T06:06:49.847Z,22.53
2018-03-26T06:09:18.192Z,25.27
2018-03-26T06:11:46.648Z,23.03
2018-03-26T06:14:15.029Z,20.83
2018-03-26T06:17:00.919Z,23.60
2018-03-26T06:19:30.453Z,24.50
2018-03-26T06:21:58.776Z,24.50
2018-03-26T06:24:27.515Z,23.53
2018-03-26T06:26:55.955Z,24.63
2018-03-26T06:29:24.040Z,21.60
2018-03-26T06:31:52.352Z,21.53
2018-03-26T06:34:21.971Z,23.00
2018-03-26T06:50:17.620Z,24.63
2018-03-26T06:52:46.857Z,25.20
2018-03-26T06:55:15.948Z,23.00
2018-03-26T06:57:44.357Z,21.23
2018-03-26T07:00:12.724Z,21.27
2018-03-26T07:02:41.061Z,24.03
2018-03-26T07:05:09.812Z,21.87
2018-03-26T07:07:38.604Z,23.57
2018-03-26T07:10:08.313Z,23.80
2018-03-26T07:12:36.635Z,21.57
2018-03-26T07:15:05.533Z,20.40
2018-03-26T07:17:34.216Z,21.40
2018-03-26T07:20:03.716Z,20.43
2018-03-26T07:22:33.012Z,21.20
2018-03-26T07:25:02.127Z,22.47
2018-03-26T07:27:30.451Z,23.40
2018-03-26T07:29:59.607Z,23.57
2018-03-26T07:32:27.969Z,22.33
2018-03-26T07:34:57.066Z,22.10
2018-03-26T07:37:25.466Z,21.77
2018-03-26T07:39:54.608Z,22.40
2018-03-26T07:42:22.952Z,20.50
2018-03-26T07:44:52.032Z,20.07
2018-03-26T07:47:21.180Z,20.90
2018-03-26T07:49:49.505Z,20.13
2018-03-26T07:52:17.826Z,20.03
2018-03-26T07:54:46.205Z,20.90
2018-03-26T07:57:14.515Z,20.23
2018-03-26T07:59:43.318Z,20.20
2018-03-26T08:02:11.874Z,22.90
2018-03-26T08:04:40.431Z,20.43
2018-03-26T08:07:09.519Z,20.97
2018-03-26T08:09:37.635Z,23.23
2018-03-26T08:12:06.347Z,22.00
2018-03-26T08:14:34.655Z,21.23
2018-03-26T08:17:03.697Z,19.90
2018-03-26T08:19:32.396Z,22.77
2018-03-26T08:22:02.824Z,20.53
2018-03-26T08:24:31.168Z,22.57
2018-03-26T08:26:59.580Z,22.60
2018-03-26T08:29:27.928Z,23.13
2018-03-26T08:31:56.952Z,22.40
2018-03-26T08:34:25.283Z,22.87
2018-03-26T08:36:54.172Z,23.00
2018-03-26T08:39:22.528Z,23.70
2018-03-26T08:41:50.831Z,22.93
2018-03-26T08:44:19.164Z,22.00
2018-03-26T08:46:47.820Z,21.10
2018-03-26T08:49:16.199Z,19.90
2018-03-26T08:51:45.525Z,22.80
2018-03-26T08:54:14.115Z,22.03
2018-03-26T08:56:42.433Z,21.83
2018-03-26T08:59:10.895Z,22.20
2018-03-26T09:01:40.463Z,23.67
2018-03-26T09:04:09.025Z,24.13
2018-03-26T09:06:37.372Z,24.10
2018-03-26T09:09:05.701Z,25.63
2018-03-26T09:11:34.420Z,24.43
2018-03-26T09:14:02.841Z,23.87
2018-03-26T09:16:31.564Z,25.43
2018-03-26T09:18:59.961Z,26.90
2018-03-26T09:21:29.829Z,26.27
2018-03-26T09:23:59.252Z,24.30
2018-03-26T09:26:27.594Z,23.70
2018-03-26T09:28:55.962Z,27.13
2018-03-26T09:31:25.136Z,26.10
2018-03-26T09:33:54.062Z,28.77
2018-03-26T09:36:22.468Z,28.53
2018-03-26T09:38:50.873Z,28.53
2018-03-26T09:41:19.230Z,28.83
2018-03-26T09:43:47.882Z,30.90
2018-03-26T09:46:16.401Z,29.67
2018-03-26T09:48:44.721Z,28.70
2018-03-26T09:51:13.057Z,28.50
2018-03-26T09:53:41.402Z,32.20
2018-03-26T09:56:10.612Z,29.90
2018-03-26T09:58:38.971Z,33.40
2018-03-26T10:01:24.375Z,31.73
2018-03-26T10:03:53.778Z,29.27
2018-03-26T10:06:22.230Z,34.93
2018-03-26T10:08:50.551Z,34.27
2018-03-26T10:11:18.956Z,33.80
2018-03-26T10:13:47.276Z,33.77
2018-03-26T10:16:15.587Z,33.23
2018-03-26T10:18:44.644Z,38.00
2018-03-26T10:21:16.964Z,33.40
2018-03-26T10:23:46.793Z,36.53
2018-03-26T10:26:15.192Z,34.20
2018-03-26T10:28:43.673Z,37.30
2018-03-26T10:31:12.007Z,37.30
2018-03-26T10:33:40.432Z,36.10
2018-03-26T10:36:08.801Z,35.30
2018-03-26T10:38:38.153Z,34.87
2018-03-26T10:41:06.468Z,35.37
2018-03-26T10:43:34.838Z,35.33
2018-03-26T10:46:03.663Z,36.33
2018-03-26T10:48:32.396Z,36.53
2018-03-26T10:51:00.841Z,36.27
2018-03-26T10:53:29.798Z,37.50
2018-03-26T10:56:00.404Z,37.93
2018-03-26T10:58:28.817Z,36.07
2018-03-26T11:00:57.440Z,38.30
2018-03-26T11:03:26.828Z,35.00
2018-03-26T11:05:55.460Z,37.00
2018-03-26T11:08:23.767Z,36.90
2018-03-26T11:10:52.816Z,34.67
2018-03-26T11:13:22.076Z,35.00
2018-03-26T11:15:50.684Z,35.23
2018-03-26T11:18:19.029Z,33.37
2018-03-26T11:20:47.492Z,28.00
2018-03-26T11:23:15.831Z,36.50
2018-03-26T11:25:44.156Z,27.70
2018-03-26T11:28:13.295Z,33.60
2018-03-26T11:30:42.996Z,35.83
2018-03-26T11:33:11.525Z,32.67
2018-03-26T11:35:39.902Z,34.10
2018-03-26T11:38:08.333Z,34.20
2018-03-26T11:40:36.893Z,33.87
2018-03-26T11:43:05.332Z,36.90
2018-03-26T11:45:33.672Z,29.70
2018-03-26T11:48:02.055Z,34.70
2018-03-26T11:50:30.900Z,36.10
2018-03-26T11:52:59.216Z,36.23
2018-03-26T11:55:27.523Z,36.70
2018-03-26T11:57:55.909Z,33.60
2018-03-26T12:00:24.241Z,31.23
2018-03-26T12:02:52.599Z,32.20
2018-03-26T12:05:21.705Z,33.73
2018-03-26T12:07:50.840Z,31.13
2018-03-26T12:10:19.324Z,28.37
2018-03-26T12:12:47.910Z,33.17
2018-03-26T12:15:16.228Z,31.00
2018-03-26T12:17:44.716Z,27.97
2018-03-26T12:20:30.754Z,29.80
2018-03-26T12:22:59.129Z,35.00
2018-03-26T12:25:27.536Z,28.27
2018-03-26T12:28:13.484Z,35.83
2018-03-26T12:30:42.117Z,27.03
2018-03-26T12:33:11.133Z,50.60
2018-03-26T12:36:00.093Z,25.50
2018-03-26T12:38:28.471Z,28.30
2018-03-26T12:40:57.952Z,27.73
2018-03-26T12:43:27.233Z,32.17
2018-03-26T12:46:13.292Z,34.50
2018-03-26T12:48:42.101Z,28.37
2018-03-26T12:51:28.991Z,26.53
2018-03-26T12:53:57.495Z,27.13
2018-03-26T12:56:25.811Z,25.00
2018-03-26T12:58:56.284Z,33.23
2018-03-26T13:01:44.420Z,26.20
2018-03-26T13:04:14.046Z,27.27
2018-03-26T13:06:42.802Z,28.70
2018-03-26T13:09:11.940Z,27.50
2018-03-26T13:11:40.706Z,24.73
2018-03-26T13:14:09.033Z,28.07
2018-03-26T13:16:38.321Z,27.70
2018-03-26T13:19:06.986Z,29.53
2018-03-26T13:21:35.396Z,28.50
2018-03-26T13:24:04.756Z,32.40
2018-03-26T13:26:33.087Z,31.43
2018-03-26T13:29:01.521Z,27.07
2018-03-26T13:31:29.908Z,25.57
2018-03-26T13:33:58.477Z,29.30
2018-03-26T13:36:27.148Z,29.47
2018-03-26T13:38:56.167Z,28.20
2018-03-26T13:41:24.507Z,27.10
2018-03-26T13:43:52.973Z,28.07
2018-03-26T13:46:21.891Z,27.20
2018-03-26T13:48:50.222Z,23.27
2018-03-26T13:51:20.197Z,28.07
2018-03-26T13:53:49.076Z,23.37
2018-03-26T13:56:18.148Z,30.07
2018-03-26T13:58:46.534Z,22.80
2018-03-26T14:01:16.344Z,28.60
2018-03-26T14:07:16.157Z,24.47
2018-03-26T14:10:02.231Z,25.93
2018-03-26T14:12:48.175Z,25.70
2018-03-26T14:15:35.740Z,28.23
2018-03-26T14:18:04.048Z,29.80
2018-03-26T14:20:33.183Z,28.23
2018-03-26T14:23:01.528Z,27.80
2018-03-26T14:25:30.540Z,31.57
2018-03-26T14:28:00.476Z,30.57
2018-03-26T14:30:29.405Z,31.43
2018-03-26T14:32:57.720Z,28.30
2018-03-26T14:48:53.004Z,29.60
2018-03-26T14:51:21.519Z,24.97
2018-03-26T14:53:50.224Z,28.10
2018-03-26T14:56:19.421Z,22.90
2018-03-26T14:58:47.012Z,29.07
2018-03-26T15:01:15.276Z,28.40
2018-03-26T15:03:43.616Z,29.77
2018-03-26T15:06:12.356Z,26.17
2018-03-26T15:08:41.523Z,29.60
2018-03-26T15:11:09.876Z,32.33
2018-03-26T15:13:38.489Z,32.07
2018-03-26T15:16:07.201Z,29.67
2018-03-26T15:18:35.632Z,29.90
2018-03-26T15:21:04.000Z,32.43
2018-03-26T15:23:32.329Z,25.83
2018-03-26T15:26:02.672Z,25.30
2018-03-26T15:28:31.103Z,31.80
2018-03-26T15:31:00.133Z,32.13
2018-03-26T15:33:29.377Z,29.70
2018-03-26T15:35:59.007Z,29.53
2018-03-26T15:38:28.918Z,30.43
2018-03-26T15:40:57.485Z,32.30
2018-03-26T15:43:26.565Z,28.70
2018-03-26T15:45:55.660Z,32.33
2018-03-26T15:48:24.545Z,31.47
2018-03-26T15:50:52.880Z,31.83
2018-03-26T15:53:21.255Z,29.83
2018-03-26T15:55:50.449Z,29.00
2018-03-26T15:58:19.552Z,31.00
2018-03-26T16:00:47.939Z,29.93
2018-03-26T16:03:22.899Z,30.37
2018-03-26T16:05:51.332Z,31.03
2018-03-26T16:08:19.603Z,30.60
2018-03-26T16:10:47.924Z,35.33
2018-03-26T16:13:16.564Z,29.03
2018-03-26T16:15:44.926Z,30.17
2018-03-26T16:18:14.119Z,30.40
2018-03-26T16:20:42.896Z,30.70
2018-03-26T16:23:11.980Z,31.10
2018-03-26T16:25:40.414Z,30.40
2018-03-26T16:28:08.885Z,28.70
2018-03-26T16:30:37.302Z,27.63
2018-03-26T16:33:06.916Z,29.67
2018-03-26T16:35:35.801Z,31.47
2018-03-26T16:38:04.469Z,29.30
2018-03-26T16:40:33.528Z,30.90
2018-03-26T16:43:05.887Z,31.17
2018-03-26T16:45:34.064Z,30.83
2018-03-26T16:48:02.534Z,27.77
2018-03-26T16:50:31.440Z,28.07
2018-03-26T16:53:00.197Z,28.10
2018-03-26T16:55:30.223Z,30.87
2018-03-26T16:57:58.547Z,28.40
2018-03-26T17:00:26.921Z,30.20
2018-03-26T17:02:55.295Z,29.83
2018-03-26T17:05:24.368Z,31.80
2018-03-26T17:07:52.948Z,32.93
2018-03-26T17:10:21.530Z,29.83
2018-03-26T17:12:49.979Z,29.37
2018-03-26T17:15:18.302Z,30.40
2018-03-26T17:17:46.964Z,30.20
2018-03-26T17:23:47.848Z,31.87
2018-03-26T17:26:16.203Z,29.10
2018-03-26T17:28:44.998Z,31.70
2018-03-26T17:31:13.483Z,27.30
2018-03-26T17:33:41.877Z,27.67
2018-03-26T17:36:10.865Z,30.83
2018-03-26T17:38:39.384Z,29.33
2018-03-26T17:41:07.820Z,32.73
2018-03-26T17:43:36.456Z,32.97
2018-03-26T17:46:06.568Z,32.67
2018-03-26T17:48:35.495Z,30.50
2018-03-26T17:51:04.028Z,35.67
2018-03-26T17:53:33.006Z,33.00
2018-03-26T17:56:01.994Z,32.50
2018-03-26T17:58:31.014Z,40.03
2018-03-26T18:00:59.348Z,33.20
2018-03-26T18:03:28.627Z,34.60
2018-03-26T18:05:56.952Z,32.70
2018-03-26T18:08:25.264Z,32.77
2018-03-26T18:10:54.051Z,29.30
2018-03-26T18:13:22.700Z,31.03
2018-03-26T18:15:51.625Z,31.07
2018-03-26T18:18:19.921Z,32.93
2018-03-26T18:20:48.280Z,29.37
2018-03-26T18:23:16.968Z,29.90
2018-03-26T18:25:46.280Z,29.93
2018-03-26T18:28:15.076Z,31.70
2018-03-26T18:30:43.605Z,29.70
2018-03-26T18:33:12.081Z,35.97
2018-03-26T18:35:41.071Z,29.77
2018-03-26T18:38:10.036Z,31.80
2018-03-26T18:40:38.340Z,42.90
2018-03-26T18:43:06.687Z,33.70
2018-03-26T18:45:35.018Z,33.17
2018-03-26T18:48:05.968Z,32.00
2018-03-26T18:50:35.036Z,30.83
2018-03-26T18:53:03.343Z,31.10
2018-03-26T18:55:31.992Z,51.97
2018-03-26T18:58:02.020Z,43.40
2018-03-26T19:00:31.679Z,42.70
2018-03-26T19:03:00.347Z,32.37
2018-03-26T19:05:28.916Z,32.57
2018-03-26T19:07:57.252Z,34.77
2018-03-26T19:10:26.807Z,36.80
2018-03-26T19:12:55.264Z,32.80
2018-03-26T19:15:23.571Z,31.90
2018-03-26T19:17:51.958Z,31.23
2018-03-26T19:20:20.771Z,32.13
2018-03-26T19:22:49.128Z,35.30
2018-03-26T19:25:18.156Z,34.40
2018-03-26T19:27:46.736Z,33.30
2018-03-26T19:30:15.253Z,35.13
2018-03-26T19:32:44.037Z,34.30
2018-03-26T19:35:13.470Z,37.80
2018-03-26T19:37:42.310Z,37.63
2018-03-26T19:40:11.305Z,35.70
2018-03-26T19:42:41.231Z,37.30
2018-03-26T19:45:10.441Z,35.00
2018-03-26T19:47:38.812Z,35.27
2018-03-26T19:50:07.144Z,34.57
2018-03-26T19:52:35.503Z,36.10
2018-03-26T19:55:04.277Z,34.30
2018-03-26T19:57:32.622Z,36.43
2018-03-26T20:00:01.680Z,34.50
2018-03-26T20:02:30.229Z,35.50
2018-03-26T20:04:58.695Z,38.40
2018-03-26T20:07:29.022Z,35.40
2018-03-26T20:09:57.324Z,34.93
2018-03-26T20:12:27.054Z,33.80
2018-03-26T20:14:55.368Z,34.53
2018-03-26T20:17:24.421Z,37.67
2018-03-26T20:19:53.672Z,36.30
2018-03-26T20:22:21.985Z,36.87
2018-03-26T20:24:53.507Z,34.07
2018-03-26T20:27:21.835Z,37.03
2018-03-26T20:29:50.609Z,37.77
2018-03-26T20:32:19.889Z,39.23
2018-03-26T20:34:48.204Z,39.83
2018-03-26T20:37:16.513Z,37.00
2018-03-26T20:39:44.914Z,38.83
2018-03-26T20:42:13.228Z,36.57
2018-03-26T20:44:42.434Z,37.70
2018-03-26T20:47:11.351Z,37.03
2018-03-26T20:49:40.156Z,35.43
2018-03-26T20:52:11.212Z,38.60
2018-03-26T20:54:42.065Z,39.97
2018-03-26T20:57:11.145Z,37.87
2018-03-26T20:59:40.065Z,35.37
2018-03-26T21:02:09.320Z,36.37
2018-03-26T21:04:38.420Z,36.47
2018-03-26T21:07:06.835Z,32.43
2018-03-26T21:09:36.127Z,34.47
2018-03-26T21:12:05.572Z,33.57
2018-03-26T21:14:34.666Z,34.60
2018-03-26T21:17:03.433Z,32.73
2018-03-26T21:19:32.088Z,34.50
2018-03-26T21:22:01.004Z,32.40
2018-03-26T21:24:30.903Z,33.13
2018-03-26T21:27:00.988Z,33.43
2018-03-26T21:29:30.104Z,35.00
2018-03-26T21:31:58.495Z,34.03
2018-03-26T21:34:26.644Z,34.63
2018-03-26T21:36:58.372Z,34.10
2018-03-26T21:39:27.396Z,34.10
2018-03-26T21:41:55.944Z,37.13
2018-03-26T21:44:25.552Z,34.80
2018-03-26T21:46:54.051Z,32.40
2018-03-26T21:49:22.795Z,34.63
2018-03-26T21:51:51.235Z,35.97
2018-03-26T21:54:20.200Z,35.20
2018-03-26T21:56:48.571Z,34.70
2018-03-26T21:59:16.892Z,36.63
2018-03-26T22:01:45.900Z,35.83
2018-03-26T22:04:15.108Z,37.80
2018-03-26T22:06:43.496Z,36.57
2018-03-26T22:09:12.243Z,36.90
2018-03-26T22:11:40.613Z,42.10
2018-03-26T22:14:08.964Z,41.13
2018-03-26T22:16:37.524Z,38.23
2018-03-26T22:19:06.388Z,40.07
2018-03-26T22:21:35.682Z,38.40
2018-03-26T22:24:03.983Z,40.20
2018-03-26T22:26:32.367Z,41.10
2018-03-26T22:29:00.869Z,39.87
2018-03-26T22:31:29.747Z,42.50
2018-03-26T22:33:58.995Z,42.37
2018-03-26T22:36:28.251Z,39.77
2018-03-26T22:38:57.309Z,40.80
2018-03-26T22:41:26.409Z,38.73
2018-03-26T22:43:54.731Z,40.43
2018-03-26T22:46:23.041Z,42.10
2018-03-26T22:48:51.405Z,40.27
2018-03-26T22:51:19.715Z,38.40
2018-03-26T22:53:48.036Z,41.80
2018-03-26T22:56:16.472Z,39.97
2018-03-26T22:58:44.771Z,37.73
2018-03-26T23:01:13.488Z,41.37
2018-03-26T23:03:41.937Z,42.03
2018-03-26T23:06:10.260Z,42.80
2018-03-26T23:08:38.567Z,42.37
2018-03-26T23:11:06.916Z,42.27
2018-03-26T23:13:35.114Z,42.33
2018-03-26T23:16:03.432Z,40.93
2018-03-26T23:18:31.879Z,40.73
2018-03-26T23:21:00.692Z,38.77
2018-03-26T23:23:29.000Z,43.87
2018-03-26T23:25:57.381Z,42.13
2018-03-26T23:28:25.931Z,49.90
2018-03-26T23:30:54.493Z,42.20
2018-03-26T23:33:23.596Z,50.00
2018-03-26T23:35:52.756Z,49.53
2018-03-26T23:38:21.146Z,51.67
2018-03-26T23:40:49.457Z,45.60
2018-03-26T23:43:17.764Z,47.47
2018-03-26T23:45:46.097Z,45.80
2018-03-26T23:48:14.416Z,48.20
2018-03-26T23:50:42.756Z,49.07
2018-03-26T23:53:11.163Z,46.30
2018-03-26T23:55:40.220Z,45.90
2018-03-26T23:58:08.528Z,46.47
